sensor_id;sensor_type;location;lat;lon;timestamp;P1;durP1;ratioP1;P2;durP2;ratioP2
4794;SDS011;2411;47.060;15.064;2023-05-27T00:02:19;14.50;;;6.20;;
4794;SDS011;2411;47.060;15.064;2023-05-27T00:04:46;8.37;;;5.60;;
4794;SDS011;2411;47.060;15.064;2023-05-27T00:07:13;7.10;;;5.30;;
4794;SDS011;2411;47.060;15.064;2023-05-27T00:09:41;8.40;;;5.53;;
4794;SDS011;2411;47.060;15.064;2023-05-27T00:12:08;5.67;;;5.17;;
4794;SDS011;2411;47.060;15.064;2023-05-27T00:14:35;6.27;;;5.67;;
4794;SDS011;2411;47.060;15.064;2023-05-27T00:17:02;6.30;;;5.50;;
4794;SDS011;2411;47.060;15.064;2023-05-27T00:19:30;6.70;;;6.10;;
4794;SDS011;2411;47.060;15.064;2023-05-27T00:21:57;7.67;;;5.93;;
4794;SDS011;2411;47.060;15.064;2023-05-27T00:24:25;6.93;;;5.60;;
4794;SDS011;2411;47.060;15.064;2023-05-27T00:26:52;5.40;;;5.00;;
4794;SDS011;2411;47.060;15.064;2023-05-27T00:29:19;5.50;;;5.00;;
4794;SDS011;2411;47.060;15.064;2023-05-27T00:31:47;9.13;;;6.33;;
4794;SDS011;2411;47.060;15.064;2023-05-27T00:34:14;10.53;;;6.23;;
4794;SDS011;2411;47.060;15.064;2023-05-27T00:36:41;9.50;;;6.13;;
4794;SDS011;2411;47.060;15.064;2023-05-27T00:39:27;8.60;;;6.50;;
4794;SDS011;2411;47.060;15.064;2023-05-27T00:42:13;7.90;;;5.33;;
4794;SDS011;2411;47.060;15.064;2023-05-27T00:44:59;6.73;;;6.00;;
4794;SDS011;2411;47.060;15.064;2023-05-27T00:47:26;6.80;;;4.90;;
4794;SDS011;2411;47.060;15.064;2023-05-27T00:49:57;9.27;;;5.33;;
4794;SDS011;2411;47.060;15.064;2023-05-27T00:52:25;6.37;;;5.77;;
4794;SDS011;2411;47.060;15.064;2023-05-27T00:54:52;7.60;;;5.23;;
4794;SDS011;2411;47.060;15.064;2023-05-27T00:57:20;8.17;;;5.80;;
4794;SDS011;2411;47.060;15.064;2023-05-27T00:59:47;7.93;;;5.13;;
4794;SDS011;2411;47.060;15.064;2023-05-27T01:02:15;7.43;;;5.70;;
4794;SDS011;2411;47.060;15.064;2023-05-27T01:04:42;5.57;;;5.07;;
4794;SDS011;2411;47.060;15.064;2023-05-27T01:10:02;5.70;;;5.17;;
4794;SDS011;2411;47.060;15.064;2023-05-27T01:12:44;5.30;;;4.80;;
4794;SDS011;2411;47.060;15.064;2023-05-27T01:15:17;8.17;;;6.27;;
4794;SDS011;2411;47.060;15.064;2023-05-27T01:17:45;6.20;;;5.50;;
4794;SDS011;2411;47.060;15.064;2023-05-27T01:20:14;5.70;;;5.10;;
4794;SDS011;2411;47.060;15.064;2023-05-27T01:22:42;7.67;;;5.90;;
4794;SDS011;2411;47.060;15.064;2023-05-27T01:25:10;6.13;;;5.50;;
4794;SDS011;2411;47.060;15.064;2023-05-27T01:27:38;7.97;;;6.17;;
4794;SDS011;2411;47.060;15.064;2023-05-27T01:30:07;6.73;;;5.77;;
4794;SDS011;2411;47.060;15.064;2023-05-27T01:38:10;6.40;;;5.80;;
4794;SDS011;2411;47.060;15.064;2023-05-27T01:40:41;5.37;;;4.87;;
4794;SDS011;2411;47.060;15.064;2023-05-27T01:43:09;8.00;;;6.20;;
4794;SDS011;2411;47.060;15.064;2023-05-27T01:45:37;8.23;;;6.23;;
4794;SDS011;2411;47.060;15.064;2023-05-27T01:48:05;6.47;;;5.30;;
4794;SDS011;2411;47.060;15.064;2023-05-27T01:50:33;11.30;;;5.80;;
4794;SDS011;2411;47.060;15.064;2023-05-27T01:53:01;17.43;;;6.00;;
4794;SDS011;2411;47.060;15.064;2023-05-27T01:55:30;7.40;;;6.13;;
4794;SDS011;2411;47.060;15.064;2023-05-27T01:57:57;7.10;;;5.80;;
4794;SDS011;2411;47.060;15.064;2023-05-27T02:00:24;6.60;;;6.00;;
4794;SDS011;2411;47.060;15.064;2023-05-27T02:02:52;8.77;;;6.50;;
4794;SDS011;2411;47.060;15.064;2023-05-27T02:05:19;9.60;;;7.07;;
4794;SDS011;2411;47.060;15.064;2023-05-27T02:07:46;6.13;;;5.53;;
4794;SDS011;2411;47.060;15.064;2023-05-27T02:10:14;8.70;;;6.20;;
4794;SDS011;2411;47.060;15.064;2023-05-27T02:12:41;6.87;;;6.17;;
4794;SDS011;2411;47.060;15.064;2023-05-27T02:15:09;7.60;;;5.93;;
4794;SDS011;2411;47.060;15.064;2023-05-27T02:17:36;8.27;;;6.70;;
4794;SDS011;2411;47.060;15.064;2023-05-27T02:20:04;6.40;;;5.80;;
4794;SDS011;2411;47.060;15.064;2023-05-27T02:22:32;9.17;;;6.50;;
4794;SDS011;2411;47.060;15.064;2023-05-27T02:24:59;7.27;;;6.57;;
4794;SDS011;2411;47.060;15.064;2023-05-27T02:27:27;8.73;;;6.53;;
4794;SDS011;2411;47.060;15.064;2023-05-27T02:29:54;7.03;;;5.77;;
4794;SDS011;2411;47.060;15.064;2023-05-27T02:32:21;6.50;;;5.50;;
4794;SDS011;2411;47.060;15.064;2023-05-27T02:34:49;11.00;;;6.70;;
4794;SDS011;2411;47.060;15.064;2023-05-27T02:37:17;9.20;;;6.23;;
4794;SDS011;2411;47.060;15.064;2023-05-27T02:39:44;6.43;;;5.70;;
4794;SDS011;2411;47.060;15.064;2023-05-27T02:42:11;7.43;;;6.17;;
4794;SDS011;2411;47.060;15.064;2023-05-27T02:44:38;7.30;;;5.90;;
4794;SDS011;2411;47.060;15.064;2023-05-27T02:47:06;6.63;;;5.97;;
4794;SDS011;2411;47.060;15.064;2023-05-27T02:49:33;8.40;;;6.00;;
4794;SDS011;2411;47.060;15.064;2023-05-27T02:52:00;6.63;;;4.93;;
4794;SDS011;2411;47.060;15.064;2023-05-27T02:54:28;8.07;;;5.93;;
4794;SDS011;2411;47.060;15.064;2023-05-27T02:56:55;9.00;;;6.40;;
4794;SDS011;2411;47.060;15.064;2023-05-27T02:59:22;11.20;;;6.20;;
4794;SDS011;2411;47.060;15.064;2023-05-27T03:01:50;6.80;;;6.20;;
4794;SDS011;2411;47.060;15.064;2023-05-27T03:04:17;8.10;;;7.10;;
4794;SDS011;2411;47.060;15.064;2023-05-27T03:06:44;10.40;;;6.47;;
4794;SDS011;2411;47.060;15.064;2023-05-27T03:09:12;7.23;;;5.97;;
4794;SDS011;2411;47.060;15.064;2023-05-27T03:11:41;11.20;;;6.90;;
4794;SDS011;2411;47.060;15.064;2023-05-27T03:14:08;7.90;;;6.80;;
4794;SDS011;2411;47.060;15.064;2023-05-27T03:16:35;7.00;;;6.30;;
4794;SDS011;2411;47.060;15.064;2023-05-27T03:19:02;6.63;;;5.93;;
4794;SDS011;2411;47.060;15.064;2023-05-27T03:21:30;9.03;;;6.27;;
4794;SDS011;2411;47.060;15.064;2023-05-27T03:23:58;8.57;;;6.00;;
4794;SDS011;2411;47.060;15.064;2023-05-27T03:26:25;8.90;;;6.37;;
4794;SDS011;2411;47.060;15.064;2023-05-27T03:28:54;12.50;;;7.53;;
4794;SDS011;2411;47.060;15.064;2023-05-27T03:31:22;8.67;;;6.77;;
4794;SDS011;2411;47.060;15.064;2023-05-27T03:33:49;9.33;;;6.67;;
4794;SDS011;2411;47.060;15.064;2023-05-27T03:36:17;11.03;;;6.67;;
4794;SDS011;2411;47.060;15.064;2023-05-27T03:38:44;8.90;;;6.57;;
4794;SDS011;2411;47.060;15.064;2023-05-27T03:41:12;9.97;;;7.20;;
4794;SDS011;2411;47.060;15.064;2023-05-27T03:43:39;6.77;;;5.93;;
4794;SDS011;2411;47.060;15.064;2023-05-27T03:46:06;7.37;;;6.60;;
4794;SDS011;2411;47.060;15.064;2023-05-27T03:48:34;6.63;;;6.03;;
4794;SDS011;2411;47.060;15.064;2023-05-27T03:51:01;7.50;;;5.97;;
4794;SDS011;2411;47.060;15.064;2023-05-27T03:53:28;7.63;;;6.83;;
4794;SDS011;2411;47.060;15.064;2023-05-27T03:55:56;8.00;;;6.23;;
4794;SDS011;2411;47.060;15.064;2023-05-27T03:58:23;7.87;;;6.40;;
4794;SDS011;2411;47.060;15.064;2023-05-27T04:00:51;8.13;;;6.40;;
4794;SDS011;2411;47.060;15.064;2023-05-27T04:03:18;11.77;;;5.80;;
4794;SDS011;2411;47.060;15.064;2023-05-27T04:05:46;9.27;;;6.50;;
4794;SDS011;2411;47.060;15.064;2023-05-27T04:08:13;6.83;;;5.93;;
4794;SDS011;2411;47.060;15.064;2023-05-27T04:10:41;6.57;;;5.80;;
4794;SDS011;2411;47.060;15.064;2023-05-27T04:13:08;7.90;;;6.57;;
4794;SDS011;2411;47.060;15.064;2023-05-27T04:15:37;6.73;;;6.17;;
4794;SDS011;2411;47.060;15.064;2023-05-27T04:18:04;7.53;;;6.83;;
4794;SDS011;2411;47.060;15.064;2023-05-27T04:20:38;6.77;;;5.67;;
4794;SDS011;2411;47.060;15.064;2023-05-27T04:23:09;7.00;;;6.33;;
4794;SDS011;2411;47.060;15.064;2023-05-27T04:25:37;7.20;;;6.00;;
4794;SDS011;2411;47.060;15.064;2023-05-27T04:28:05;6.77;;;6.07;;
4794;SDS011;2411;47.060;15.064;2023-05-27T04:30:34;7.17;;;6.30;;
4794;SDS011;2411;47.060;15.064;2023-05-27T04:33:02;12.13;;;6.83;;
4794;SDS011;2411;47.060;15.064;2023-05-27T04:35:30;7.30;;;6.13;;
4794;SDS011;2411;47.060;15.064;2023-05-27T04:37:57;8.93;;;6.87;;
4794;SDS011;2411;47.060;15.064;2023-05-27T04:40:27;8.10;;;5.80;;
4794;SDS011;2411;47.060;15.064;2023-05-27T04:43:00;5.90;;;5.30;;
4794;SDS011;2411;47.060;15.064;2023-05-27T04:45:28;6.43;;;5.63;;
4794;SDS011;2411;47.060;15.064;2023-05-27T04:47:56;8.33;;;5.93;;
4794;SDS011;2411;47.060;15.064;2023-05-27T04:50:24;6.87;;;6.20;;
4794;SDS011;2411;47.060;15.064;2023-05-27T04:52:51;9.07;;;7.40;;
4794;SDS011;2411;47.060;15.064;2023-05-27T04:55:19;9.00;;;6.27;;
4794;SDS011;2411;47.060;15.064;2023-05-27T04:57:48;7.57;;;6.70;;
4794;SDS011;2411;47.060;15.064;2023-05-27T05:00:15;8.07;;;6.17;;
4794;SDS011;2411;47.060;15.064;2023-05-27T05:02:50;8.90;;;6.57;;
4794;SDS011;2411;47.060;15.064;2023-05-27T05:05:27;11.50;;;6.27;;
4794;SDS011;2411;47.060;15.064;2023-05-27T05:07:55;6.60;;;5.93;;
4794;SDS011;2411;47.060;15.064;2023-05-27T05:10:22;10.60;;;5.80;;
4794;SDS011;2411;47.060;15.064;2023-05-27T05:12:50;6.03;;;5.30;;
4794;SDS011;2411;47.060;15.064;2023-05-27T05:15:17;7.47;;;5.90;;
4794;SDS011;2411;47.060;15.064;2023-05-27T05:17:44;6.70;;;5.10;;
4794;SDS011;2411;47.060;15.064;2023-05-27T05:20:12;9.23;;;5.90;;
4794;SDS011;2411;47.060;15.064;2023-05-27T05:22:40;8.40;;;6.60;;
4794;SDS011;2411;47.060;15.064;2023-05-27T05:25:07;9.60;;;6.40;;
4794;SDS011;2411;47.060;15.064;2023-05-27T05:27:35;13.30;;;6.70;;
4794;SDS011;2411;47.060;15.064;2023-05-27T05:30:03;5.80;;;5.20;;
4794;SDS011;2411;47.060;15.064;2023-05-27T05:32:31;12.77;;;5.97;;
4794;SDS011;2411;47.060;15.064;2023-05-27T05:34:58;9.17;;;6.00;;
4794;SDS011;2411;47.060;15.064;2023-05-27T05:37:26;6.17;;;5.57;;
4794;SDS011;2411;47.060;15.064;2023-05-27T05:39:54;6.03;;;5.43;;
4794;SDS011;2411;47.060;15.064;2023-05-27T05:42:22;7.47;;;5.57;;
4794;SDS011;2411;47.060;15.064;2023-05-27T05:44:52;9.70;;;6.60;;
4794;SDS011;2411;47.060;15.064;2023-05-27T05:47:19;9.17;;;6.30;;
4794;SDS011;2411;47.060;15.064;2023-05-27T05:49:46;7.10;;;6.27;;
4794;SDS011;2411;47.060;15.064;2023-05-27T05:52:14;11.20;;;6.77;;
4794;SDS011;2411;47.060;15.064;2023-05-27T05:54:41;6.07;;;5.40;;
4794;SDS011;2411;47.060;15.064;2023-05-27T05:57:08;7.00;;;6.20;;
4794;SDS011;2411;47.060;15.064;2023-05-27T05:59:36;7.20;;;6.27;;
4794;SDS011;2411;47.060;15.064;2023-05-27T06:02:03;7.20;;;5.77;;
4794;SDS011;2411;47.060;15.064;2023-05-27T06:04:31;8.80;;;5.83;;
4794;SDS011;2411;47.060;15.064;2023-05-27T06:06:58;6.27;;;5.67;;
4794;SDS011;2411;47.060;15.064;2023-05-27T06:09:27;8.40;;;6.90;;
4794;SDS011;2411;47.060;15.064;2023-05-27T06:11:55;7.93;;;6.50;;
4794;SDS011;2411;47.060;15.064;2023-05-27T06:14:22;7.10;;;5.17;;
4794;SDS011;2411;47.060;15.064;2023-05-27T06:16:50;9.03;;;6.07;;
4794;SDS011;2411;47.060;15.064;2023-05-27T06:19:17;6.80;;;5.83;;
4794;SDS011;2411;47.060;15.064;2023-05-27T06:21:45;6.30;;;5.57;;
4794;SDS011;2411;47.060;15.064;2023-05-27T06:24:12;5.90;;;5.40;;
4794;SDS011;2411;47.060;15.064;2023-05-27T06:26:39;6.80;;;5.03;;
4794;SDS011;2411;47.060;15.064;2023-05-27T06:29:07;8.97;;;5.70;;
4794;SDS011;2411;47.060;15.064;2023-05-27T06:31:34;7.70;;;5.67;;
4794;SDS011;2411;47.060;15.064;2023-05-27T06:34:02;10.70;;;6.03;;
4794;SDS011;2411;47.060;15.064;2023-05-27T06:36:29;11.33;;;5.03;;
4794;SDS011;2411;47.060;15.064;2023-05-27T06:38:57;7.67;;;5.60;;
4794;SDS011;2411;47.060;15.064;2023-05-27T06:41:25;5.50;;;5.00;;
4794;SDS011;2411;47.060;15.064;2023-05-27T06:43:52;10.47;;;5.97;;
4794;SDS011;2411;47.060;15.064;2023-05-27T06:46:20;7.60;;;5.70;;
4794;SDS011;2411;47.060;15.064;2023-05-27T06:48:47;8.13;;;5.90;;
4794;SDS011;2411;47.060;15.064;2023-05-27T06:51:15;7.50;;;5.67;;
4794;SDS011;2411;47.060;15.064;2023-05-27T06:53:42;8.97;;;5.67;;
4794;SDS011;2411;47.060;15.064;2023-05-27T06:56:10;6.47;;;5.00;;
4794;SDS011;2411;47.060;15.064;2023-05-27T06:58:37;8.50;;;5.67;;
4794;SDS011;2411;47.060;15.064;2023-05-27T07:01:04;6.73;;;5.77;;
4794;SDS011;2411;47.060;15.064;2023-05-27T07:03:32;9.67;;;5.57;;
4794;SDS011;2411;47.060;15.064;2023-05-27T07:05:59;23.23;;;7.13;;
4794;SDS011;2411;47.060;15.064;2023-05-27T07:08:27;10.43;;;5.50;;
4794;SDS011;2411;47.060;15.064;2023-05-27T07:10:55;10.17;;;5.90;;
4794;SDS011;2411;47.060;15.064;2023-05-27T07:13:22;8.30;;;6.47;;
4794;SDS011;2411;47.060;15.064;2023-05-27T07:15:49;8.10;;;5.23;;
4794;SDS011;2411;47.060;15.064;2023-05-27T07:18:17;6.60;;;5.80;;
4794;SDS011;2411;47.060;15.064;2023-05-27T07:20:45;6.80;;;5.13;;
4794;SDS011;2411;47.060;15.064;2023-05-27T07:23:12;8.70;;;6.30;;
4794;SDS011;2411;47.060;15.064;2023-05-27T07:25:40;7.57;;;5.70;;
4794;SDS011;2411;47.060;15.064;2023-05-27T07:28:07;7.23;;;5.30;;
4794;SDS011;2411;47.060;15.064;2023-05-27T07:30:34;8.50;;;5.80;;
4794;SDS011;2411;47.060;15.064;2023-05-27T07:33:02;7.00;;;5.67;;
4794;SDS011;2411;47.060;15.064;2023-05-27T07:35:29;7.47;;;4.80;;
4794;SDS011;2411;47.060;15.064;2023-05-27T07:37:57;5.53;;;4.90;;
4794;SDS011;2411;47.060;15.064;2023-05-27T07:40:24;7.87;;;5.50;;
4794;SDS011;2411;47.060;15.064;2023-05-27T07:42:51;5.43;;;4.93;;
4794;SDS011;2411;47.060;15.064;2023-05-27T07:45:18;7.00;;;5.00;;
4794;SDS011;2411;47.060;15.064;2023-05-27T07:47:46;6.87;;;5.00;;
4794;SDS011;2411;47.060;15.064;2023-05-27T07:50:13;6.03;;;4.77;;
4794;SDS011;2411;47.060;15.064;2023-05-27T07:52:41;5.87;;;4.80;;
4794;SDS011;2411;47.060;15.064;2023-05-27T07:55:09;7.43;;;4.40;;
4794;SDS011;2411;47.060;15.064;2023-05-27T07:57:36;9.07;;;5.33;;
4794;SDS011;2411;47.060;15.064;2023-05-27T08:00:04;6.67;;;4.90;;
4794;SDS011;2411;47.060;15.064;2023-05-27T08:02:34;7.77;;;4.10;;
4794;SDS011;2411;47.060;15.064;2023-05-27T08:05:02;7.20;;;4.90;;
4794;SDS011;2411;47.060;15.064;2023-05-27T08:07:33;6.13;;;4.10;;
4794;SDS011;2411;47.060;15.064;2023-05-27T08:10:00;8.77;;;5.27;;
4794;SDS011;2411;47.060;15.064;2023-05-27T08:12:27;9.10;;;4.30;;
4794;SDS011;2411;47.060;15.064;2023-05-27T08:14:55;8.80;;;5.10;;
4794;SDS011;2411;47.060;15.064;2023-05-27T08:17:22;5.10;;;4.37;;
4794;SDS011;2411;47.060;15.064;2023-05-27T08:19:49;6.33;;;4.30;;
4794;SDS011;2411;47.060;15.064;2023-05-27T08:22:17;5.40;;;4.40;;
4794;SDS011;2411;47.060;15.064;2023-05-27T08:24:44;5.33;;;3.97;;
4794;SDS011;2411;47.060;15.064;2023-05-27T08:27:15;4.17;;;3.67;;
4794;SDS011;2411;47.060;15.064;2023-05-27T08:29:43;6.40;;;3.87;;
4794;SDS011;2411;47.060;15.064;2023-05-27T08:32:10;6.13;;;3.57;;
4794;SDS011;2411;47.060;15.064;2023-05-27T08:34:38;5.37;;;3.47;;
4794;SDS011;2411;47.060;15.064;2023-05-27T08:37:05;5.93;;;3.03;;
4794;SDS011;2411;47.060;15.064;2023-05-27T08:39:33;4.90;;;3.87;;
4794;SDS011;2411;47.060;15.064;2023-05-27T08:42:00;6.43;;;3.77;;
4794;SDS011;2411;47.060;15.064;2023-05-27T08:44:29;6.30;;;3.53;;
4794;SDS011;2411;47.060;15.064;2023-05-27T08:46:57;6.00;;;3.17;;
4794;SDS011;2411;47.060;15.064;2023-05-27T08:49:25;8.67;;;3.80;;
4794;SDS011;2411;47.060;15.064;2023-05-27T08:51:53;6.33;;;2.80;;
4794;SDS011;2411;47.060;15.064;2023-05-27T08:54:24;6.90;;;2.80;;
4794;SDS011;2411;47.060;15.064;2023-05-27T08:56:52;4.30;;;2.50;;
4794;SDS011;2411;47.060;15.064;2023-05-27T08:59:22;8.20;;;2.50;;
4794;SDS011;2411;47.060;15.064;2023-05-27T09:01:50;5.90;;;2.80;;
4794;SDS011;2411;47.060;15.064;2023-05-27T09:04:19;4.20;;;2.50;;
4794;SDS011;2411;47.060;15.064;2023-05-27T09:06:46;4.33;;;2.63;;
4794;SDS011;2411;47.060;15.064;2023-05-27T09:09:13;2.80;;;2.30;;
4794;SDS011;2411;47.060;15.064;2023-05-27T09:11:41;4.70;;;2.27;;
4794;SDS011;2411;47.060;15.064;2023-05-27T09:14:21;5.57;;;2.60;;
4794;SDS011;2411;47.060;15.064;2023-05-27T09:16:51;8.93;;;2.80;;
4794;SDS011;2411;47.060;15.064;2023-05-27T09:19:19;9.73;;;2.90;;
4794;SDS011;2411;47.060;15.064;2023-05-27T09:21:53;5.20;;;3.00;;
4794;SDS011;2411;47.060;15.064;2023-05-27T09:24:24;5.47;;;3.10;;
4794;SDS011;2411;47.060;15.064;2023-05-27T09:26:52;5.93;;;3.10;;
4794;SDS011;2411;47.060;15.064;2023-05-27T09:29:24;4.43;;;2.43;;
4794;SDS011;2411;47.060;15.064;2023-05-27T09:31:55;4.90;;;2.63;;
4794;SDS011;2411;47.060;15.064;2023-05-27T09:34:23;2.77;;;2.57;;
4794;SDS011;2411;47.060;15.064;2023-05-27T09:36:51;3.03;;;2.73;;
4794;SDS011;2411;47.060;15.064;2023-05-27T09:39:19;5.53;;;2.67;;
4794;SDS011;2411;47.060;15.064;2023-05-27T09:41:55;3.10;;;2.80;;
4794;SDS011;2411;47.060;15.064;2023-05-27T09:44:24;6.57;;;2.87;;
4794;SDS011;2411;47.060;15.064;2023-05-27T09:46:55;5.23;;;2.80;;
4794;SDS011;2411;47.060;15.064;2023-05-27T09:49:25;3.80;;;2.30;;
4794;SDS011;2411;47.060;15.064;2023-05-27T09:51:55;3.77;;;2.27;;
4794;SDS011;2411;47.060;15.064;2023-05-27T09:54:24;4.47;;;2.60;;
4794;SDS011;2411;47.060;15.064;2023-05-27T09:56:51;3.60;;;2.60;;
4794;SDS011;2411;47.060;15.064;2023-05-27T09:59:19;4.17;;;2.97;;
4794;SDS011;2411;47.060;15.064;2023-05-27T10:01:46;5.43;;;2.47;;
4794;SDS011;2411;47.060;15.064;2023-05-27T10:04:16;3.03;;;2.53;;
4794;SDS011;2411;47.060;15.064;2023-05-27T10:06:46;4.90;;;2.50;;
4794;SDS011;2411;47.060;15.064;2023-05-27T10:09:15;5.73;;;2.90;;
4794;SDS011;2411;47.060;15.064;2023-05-27T10:11:43;6.80;;;2.77;;
4794;SDS011;2411;47.060;15.064;2023-05-27T10:14:12;5.70;;;2.90;;
4794;SDS011;2411;47.060;15.064;2023-05-27T10:16:39;5.57;;;3.20;;
4794;SDS011;2411;47.060;15.064;2023-05-27T10:19:20;7.03;;;3.47;;
4794;SDS011;2411;47.060;15.064;2023-05-27T10:21:48;8.50;;;3.30;;
4794;SDS011;2411;47.060;15.064;2023-05-27T10:24:15;6.90;;;3.07;;
4794;SDS011;2411;47.060;15.064;2023-05-27T10:26:43;5.00;;;2.83;;
4794;SDS011;2411;47.060;15.064;2023-05-27T10:29:12;3.20;;;2.60;;
4794;SDS011;2411;47.060;15.064;2023-05-27T10:31:47;4.63;;;2.90;;
4794;SDS011;2411;47.060;15.064;2023-05-27T10:34:19;5.47;;;3.00;;
4794;SDS011;2411;47.060;15.064;2023-05-27T10:36:47;4.80;;;3.10;;
4794;SDS011;2411;47.060;15.064;2023-05-27T10:39:25;7.67;;;3.50;;
4794;SDS011;2411;47.060;15.064;2023-05-27T10:41:56;5.13;;;3.10;;
4794;SDS011;2411;47.060;15.064;2023-05-27T10:44:32;4.60;;;3.20;;
4794;SDS011;2411;47.060;15.064;2023-05-27T10:49:33;3.83;;;2.83;;
4794;SDS011;2411;47.060;15.064;2023-05-27T10:52:09;9.83;;;3.13;;
4794;SDS011;2411;47.060;15.064;2023-05-27T10:54:40;4.33;;;3.30;;
4794;SDS011;2411;47.060;15.064;2023-05-27T10:57:13;4.13;;;3.10;;
4794;SDS011;2411;47.060;15.064;2023-05-27T11:02:22;4.23;;;3.17;;
4794;SDS011;2411;47.060;15.064;2023-05-27T11:04:49;6.97;;;3.33;;
4794;SDS011;2411;47.060;15.064;2023-05-27T11:07:18;2.87;;;2.63;;
4794;SDS011;2411;47.060;15.064;2023-05-27T11:09:47;7.13;;;3.03;;
4794;SDS011;2411;47.060;15.064;2023-05-27T11:12:22;5.53;;;3.10;;
4794;SDS011;2411;47.060;15.064;2023-05-27T11:14:51;5.90;;;3.43;;
4794;SDS011;2411;47.060;15.064;2023-05-27T11:17:20;4.70;;;3.30;;
4794;SDS011;2411;47.060;15.064;2023-05-27T11:19:49;5.67;;;3.50;;
4794;SDS011;2411;47.060;15.064;2023-05-27T11:22:17;5.57;;;3.60;;
4794;SDS011;2411;47.060;15.064;2023-05-27T11:25:00;6.70;;;3.70;;
4794;SDS011;2411;47.060;15.064;2023-05-27T11:27:36;3.63;;;3.07;;
4794;SDS011;2411;47.060;15.064;2023-05-27T11:30:08;5.20;;;3.23;;
4794;SDS011;2411;47.060;15.064;2023-05-27T11:32:40;5.30;;;3.87;;
4794;SDS011;2411;47.060;15.064;2023-05-27T11:35:17;6.70;;;4.00;;
4794;SDS011;2411;47.060;15.064;2023-05-27T11:37:46;3.57;;;3.20;;
4794;SDS011;2411;47.060;15.064;2023-05-27T11:40:16;3.90;;;3.43;;
4794;SDS011;2411;47.060;15.064;2023-05-27T11:42:44;4.40;;;3.60;;
4794;SDS011;2411;47.060;15.064;2023-05-27T11:45:19;5.63;;;3.43;;
4794;SDS011;2411;47.060;15.064;2023-05-27T11:47:48;7.53;;;4.33;;
4794;SDS011;2411;47.060;15.064;2023-05-27T11:50:21;7.33;;;3.93;;
4794;SDS011;2411;47.060;15.064;2023-05-27T11:52:52;5.30;;;3.43;;
4794;SDS011;2411;47.060;15.064;2023-05-27T11:55:23;4.43;;;3.80;;
4794;SDS011;2411;47.060;15.064;2023-05-27T11:57:51;7.10;;;3.90;;
4794;SDS011;2411;47.060;15.064;2023-05-27T12:00:19;10.07;;;3.83;;
4794;SDS011;2411;47.060;15.064;2023-05-27T12:02:46;12.40;;;3.40;;
4794;SDS011;2411;47.060;15.064;2023-05-27T12:05:14;6.27;;;4.00;;
4794;SDS011;2411;47.060;15.064;2023-05-27T12:07:59;5.83;;;3.73;;
4794;SDS011;2411;47.060;15.064;2023-05-27T12:10:27;6.43;;;4.53;;
4794;SDS011;2411;47.060;15.064;2023-05-27T12:13:06;4.90;;;3.40;;
4794;SDS011;2411;47.060;15.064;2023-05-27T12:15:34;5.77;;;3.93;;
4794;SDS011;2411;47.060;15.064;2023-05-27T12:18:01;5.80;;;3.80;;
4794;SDS011;2411;47.060;15.064;2023-05-27T12:20:29;3.57;;;3.27;;
4794;SDS011;2411;47.060;15.064;2023-05-27T12:22:56;4.10;;;3.63;;
4794;SDS011;2411;47.060;15.064;2023-05-27T12:25:23;4.90;;;3.63;;
4794;SDS011;2411;47.060;15.064;2023-05-27T12:27:51;6.90;;;3.13;;
4794;SDS011;2411;47.060;15.064;2023-05-27T12:30:18;4.20;;;3.40;;
4794;SDS011;2411;47.060;15.064;2023-05-27T12:32:46;6.67;;;4.10;;
4794;SDS011;2411;47.060;15.064;2023-05-27T12:35:13;3.60;;;3.20;;
4794;SDS011;2411;47.060;15.064;2023-05-27T12:37:41;5.80;;;4.27;;
4794;SDS011;2411;47.060;15.064;2023-05-27T12:40:08;6.63;;;3.67;;
4794;SDS011;2411;47.060;15.064;2023-05-27T12:42:41;6.10;;;3.83;;
4794;SDS011;2411;47.060;15.064;2023-05-27T12:45:09;5.70;;;4.00;;
4794;SDS011;2411;47.060;15.064;2023-05-27T12:47:37;7.30;;;3.90;;
4794;SDS011;2411;47.060;15.064;2023-05-27T12:50:04;5.40;;;3.63;;
4794;SDS011;2411;47.060;15.064;2023-05-27T12:52:33;6.90;;;4.30;;
4794;SDS011;2411;47.060;15.064;2023-05-27T12:55:02;7.33;;;3.33;;
4794;SDS011;2411;47.060;15.064;2023-05-27T12:57:30;5.20;;;3.40;;
4794;SDS011;2411;47.060;15.064;2023-05-27T12:59:57;5.33;;;3.87;;
4794;SDS011;2411;47.060;15.064;2023-05-27T13:02:25;6.63;;;3.90;;
4794;SDS011;2411;47.060;15.064;2023-05-27T13:04:52;5.10;;;3.63;;
4794;SDS011;2411;47.060;15.064;2023-05-27T13:07:19;9.60;;;4.13;;
4794;SDS011;2411;47.060;15.064;2023-05-27T13:09:47;12.77;;;5.27;;
4794;SDS011;2411;47.060;15.064;2023-05-27T13:12:14;9.33;;;4.50;;
4794;SDS011;2411;47.060;15.064;2023-05-27T13:14:41;6.63;;;3.97;;
4794;SDS011;2411;47.060;15.064;2023-05-27T13:17:09;6.70;;;4.57;;
4794;SDS011;2411;47.060;15.064;2023-05-27T13:19:36;3.93;;;3.30;;
4794;SDS011;2411;47.060;15.064;2023-05-27T13:22:04;5.63;;;3.67;;
4794;SDS011;2411;47.060;15.064;2023-05-27T13:24:31;4.63;;;3.60;;
4794;SDS011;2411;47.060;15.064;2023-05-27T13:26:59;5.07;;;3.47;;
4794;SDS011;2411;47.060;15.064;2023-05-27T13:29:27;9.90;;;4.67;;
4794;SDS011;2411;47.060;15.064;2023-05-27T13:31:54;6.50;;;3.90;;
4794;SDS011;2411;47.060;15.064;2023-05-27T13:34:22;5.50;;;4.30;;
4794;SDS011;2411;47.060;15.064;2023-05-27T13:36:50;5.87;;;4.00;;
4794;SDS011;2411;47.060;15.064;2023-05-27T13:39:17;6.40;;;3.83;;
4794;SDS011;2411;47.060;15.064;2023-05-27T13:41:45;8.10;;;5.90;;
4794;SDS011;2411;47.060;15.064;2023-05-27T13:44:12;10.77;;;6.00;;
4794;SDS011;2411;47.060;15.064;2023-05-27T13:46:40;9.37;;;4.60;;
4794;SDS011;2411;47.060;15.064;2023-05-27T13:49:08;4.47;;;3.63;;
4794;SDS011;2411;47.060;15.064;2023-05-27T13:51:42;6.27;;;3.90;;
4794;SDS011;2411;47.060;15.064;2023-05-27T13:54:10;8.90;;;5.20;;
4794;SDS011;2411;47.060;15.064;2023-05-27T13:56:38;7.00;;;4.60;;
4794;SDS011;2411;47.060;15.064;2023-05-27T13:59:05;6.07;;;4.07;;
4794;SDS011;2411;47.060;15.064;2023-05-27T14:01:32;6.87;;;4.00;;
4794;SDS011;2411;47.060;15.064;2023-05-27T14:04:03;5.50;;;4.20;;
4794;SDS011;2411;47.060;15.064;2023-05-27T14:06:31;5.80;;;3.90;;
4794;SDS011;2411;47.060;15.064;2023-05-27T14:08:58;7.60;;;3.10;;
4794;SDS011;2411;47.060;15.064;2023-05-27T14:11:31;7.87;;;3.77;;
4794;SDS011;2411;47.060;15.064;2023-05-27T14:13:59;8.23;;;3.90;;
4794;SDS011;2411;47.060;15.064;2023-05-27T14:16:26;5.93;;;3.73;;
4794;SDS011;2411;47.060;15.064;2023-05-27T14:18:54;4.87;;;3.20;;
4794;SDS011;2411;47.060;15.064;2023-05-27T14:21:22;4.50;;;3.37;;
4794;SDS011;2411;47.060;15.064;2023-05-27T14:23:49;4.90;;;3.80;;
4794;SDS011;2411;47.060;15.064;2023-05-27T14:26:16;4.43;;;3.57;;
4794;SDS011;2411;47.060;15.064;2023-05-27T14:28:44;8.63;;;4.13;;
4794;SDS011;2411;47.060;15.064;2023-05-27T14:31:11;4.53;;;3.23;;
4794;SDS011;2411;47.060;15.064;2023-05-27T14:33:39;7.00;;;3.90;;
4794;SDS011;2411;47.060;15.064;2023-05-27T14:36:06;10.23;;;3.90;;
4794;SDS011;2411;47.060;15.064;2023-05-27T14:38:34;7.37;;;4.00;;
4794;SDS011;2411;47.060;15.064;2023-05-27T14:41:01;6.63;;;4.13;;
4794;SDS011;2411;47.060;15.064;2023-05-27T14:43:29;4.30;;;3.90;;
4794;SDS011;2411;47.060;15.064;2023-05-27T14:45:58;5.10;;;3.50;;
4794;SDS011;2411;47.060;15.064;2023-05-27T14:48:26;6.03;;;3.60;;
4794;SDS011;2411;47.060;15.064;2023-05-27T14:50:53;4.70;;;4.00;;
4794;SDS011;2411;47.060;15.064;2023-05-27T14:53:20;5.10;;;3.60;;
4794;SDS011;2411;47.060;15.064;2023-05-27T14:55:48;5.73;;;3.80;;
4794;SDS011;2411;47.060;15.064;2023-05-27T14:58:17;7.57;;;3.60;;
4794;SDS011;2411;47.060;15.064;2023-05-27T15:00:44;6.07;;;4.17;;
4794;SDS011;2411;47.060;15.064;2023-05-27T15:03:12;6.33;;;3.50;;
4794;SDS011;2411;47.060;15.064;2023-05-27T15:05:39;6.00;;;3.83;;
4794;SDS011;2411;47.060;15.064;2023-05-27T15:08:07;5.27;;;3.33;;
4794;SDS011;2411;47.060;15.064;2023-05-27T15:10:38;5.37;;;3.47;;
4794;SDS011;2411;47.060;15.064;2023-05-27T15:13:05;8.30;;;3.60;;
4794;SDS011;2411;47.060;15.064;2023-05-27T15:15:32;4.63;;;3.23;;
4794;SDS011;2411;47.060;15.064;2023-05-27T15:18:00;5.00;;;3.47;;
4794;SDS011;2411;47.060;15.064;2023-05-27T15:20:27;6.33;;;3.70;;
4794;SDS011;2411;47.060;15.064;2023-05-27T15:22:54;5.23;;;3.77;;